Time;durP1;ratioP1;P1;durP2;ratioP2;P2;SDS_P1;SDS_P2;PMS_P1;PMS_P2;Temp;Humidity;BMP_temperature;BMP_pressure;BME280_temperature;BME280_humidity;BME280_pressure;Samples;Min_cycle;Max_cycle;Signal;HPM_P1;HPM_P2
2021/12/10 00:00:35;;;;;;;2.13;0.57;;;23.20;63.40;;;;;;4182861;28;20065;-47
2021/12/10 00:02:38;;;;;;;1.40;0.65;;;23.20;63.30;;;;;;4175763;28;20055;-50
2021/12/10 00:04:42;;;;;;;3.25;0.80;;;23.20;63.30;;;;;;4161579;28;20732;-46
2021/12/10 00:06:55;;;;;;;1.85;0.60;;;23.20;63.50;;;;;;4184527;28;21393;-51
2021/12/10 00:09:14;;;;;;;4.03;0.83;;;23.20;63.60;;;;;;4171571;28;20055;-48
2021/12/10 00:11:33;;;;;;;2.47;0.57;;;23.20;64.40;;;;;;4177199;28;20308;-49
2021/12/10 00:13:36;;;;;;;3.95;1.05;;;23.20;63.70;;;;;;4186303;28;20058;-44
2021/12/10 00:15:40;;;;;;;4.72;0.85;;;23.10;63.60;;;;;;4170544;28;20075;-49
2021/12/10 00:17:43;;;;;;;1.35;0.50;;;23.10;63.70;;;;;;4163051;28;20051;-47
2021/12/10 00:19:53;;;;;;;2.40;0.77;;;23.10;63.80;;;;;;4172255;28;20490;-46
2021/12/10 00:21:57;;;;;;;2.67;0.85;;;23.10;63.80;;;;;;4177983;28;20052;-48
2021/12/10 00:24:00;;;;;;;1.48;0.80;;;23.10;63.80;;;;;;4179637;28;21385;-49
2021/12/10 00:26:06;;;;;;;1.33;0.98;;;23.10;64.00;;;;;;4187351;28;20063;-46
2021/12/10 00:28:24;;;;;;;4.93;1.55;;;23.10;63.60;;;;;;4188251;28;20130;-48
2021/12/10 00:30:32;;;;;;;3.33;1.10;;;23.10;62.20;;;;;;4184028;28;20063;-49
2021/12/10 00:32:40;;;;;;;15.27;1.80;;;23.10;62.60;;;;;;4185433;28;20173;-45
2021/12/10 00:34:50;;;;;;;2.50;0.90;;;23.00;62.70;;;;;;4182228;28;21670;-48
2021/12/10 00:36:55;;;;;;;5.38;1.50;;;23.00;62.90;;;;;;4175096;28;20706;-44
2021/12/10 00:38:59;;;;;;;5.80;1.73;;;23.00;63.50;;;;;;4184599;28;20169;-52
2021/12/10 00:41:02;;;;;;;3.65;1.20;;;23.00;62.90;;;;;;4166627;28;20775;-48
2021/12/10 00:43:05;;;;;;;4.32;1.08;;;23.00;63.00;;;;;;4184090;28;20348;-51
2021/12/10 00:45:11;;;;;;;3.80;0.95;;;23.00;63.00;;;;;;4175305;28;20568;-51
2021/12/10 00:47:14;;;;;;;2.03;1.05;;;23.00;63.10;;;;;;4166386;28;20441;-51
2021/12/10 00:49:16;;;;;;;2.38;1.10;;;23.00;63.30;;;;;;4184803;28;20059;-51
2021/12/10 00:51:19;;;;;;;1.27;0.70;;;22.90;63.10;;;;;;4167099;28;20055;-52
2021/12/10 00:53:22;;;;;;;2.97;1.10;;;22.90;63.10;;;;;;4182955;28;20074;-50
2021/12/10 00:55:25;;;;;;;2.00;0.90;;;22.90;63.00;;;;;;4184803;28;20610;-50
2021/12/10 00:57:27;;;;;;;2.80;1.00;;;22.90;62.80;;;;;;4183443;28;20149;-53
2021/12/10 00:59:30;;;;;;;2.70;0.77;;;22.90;62.80;;;;;;4185424;28;20054;-47
2021/12/10 01:01:33;;;;;;;1.65;0.88;;;22.90;62.90;;;;;;4174087;28;20060;-48
2021/12/10 01:03:42;;;;;;;1.55;0.88;;;22.80;62.80;;;;;;4185814;28;20051;-53
2021/12/10 01:05:48;;;;;;;2.60;0.80;;;22.80;63.60;;;;;;4184570;28;20058;-51
2021/12/10 01:07:50;;;;;;;3.78;0.90;;;22.80;62.90;;;;;;4183987;28;20079;-49
2021/12/10 01:09:55;;;;;;;1.08;0.70;;;22.80;62.90;;;;;;4184383;28;20061;-49
2021/12/10 01:12:26;;;;;;;2.25;0.80;;;22.80;62.90;;;;;;4185567;28;20127;-48
2021/12/10 01:14:52;;;;;;;2.45;1.02;;;22.80;63.00;;;;;;4187339;28;20043;-50
2021/12/10 01:24:17;;;;;;;2.45;0.70;;;22.70;63.20;;;;;;4187043;28;20039;-53
2021/12/10 01:26:51;;;;;;;0.80;0.52;;;22.70;63.20;;;;;;4162053;28;20055;-54
2021/12/10 01:28:57;;;;;;;3.85;0.82;;;22.60;63.10;;;;;;4186337;28;20103;-55
2021/12/10 01:30:59;;;;;;;3.08;0.70;;;22.60;63.80;;;;;;4186080;28;20058;-52
2021/12/10 01:33:20;;;;;;;0.40;0.40;;;22.60;63.20;;;;;;4183521;28;20124;-52
2021/12/10 01:35:26;;;;;;;1.85;0.73;;;22.60;63.10;;;;;;4185002;28;20051;-50
2021/12/10 01:37:28;;;;;;;0.85;0.50;;;22.60;63.30;;;;;;4183074;28;20067;-51
2021/12/10 01:39:34;;;;;;;1.17;0.52;;;22.60;63.30;;;;;;4184502;28;20161;-51
2021/12/10 01:41:39;;;;;;;0.77;0.57;;;22.50;63.40;;;;;;4175549;28;20289;-50
2021/12/10 01:43:43;;;;;;;0.95;0.40;;;22.50;63.50;;;;;;4185571;28;20109;-47
2021/12/10 01:45:47;;;;;;;0.75;0.50;;;22.50;63.40;;;;;;4185571;28;22062;-54
2021/12/10 01:48:01;;;;;;;1.30;0.70;;;22.50;63.40;;;;;;4184219;27;20055;-49
2021/12/10 01:50:07;;;;;;;0.45;0.45;;;22.50;63.40;;;;;;4185748;28;20062;-49
2021/12/10 01:52:10;;;;;;;1.45;0.60;;;22.50;63.30;;;;;;4184958;28;20119;-46
2021/12/10 01:54:21;;;;;;;3.78;0.73;;;22.50;62.00;;;;;;4178476;28;20143;-50
2021/12/10 01:56:28;;;;;;;1.48;0.80;;;22.40;61.50;;;;;;4184729;28;20101;-50
2021/12/10 01:58:32;;;;;;;0.77;0.65;;;22.40;61.40;;;;;;4187387;28;20050;-48
2021/12/10 02:00:38;;;;;;;1.27;0.80;;;22.40;61.20;;;;;;4161131;28;20724;-51
2021/12/10 02:02:44;;;;;;;1.20;0.55;;;22.40;61.30;;;;;;4185607;28;20047;-45
2021/12/10 02:04:48;;;;;;;1.25;0.70;;;22.30;61.40;;;;;;4170435;28;20620;-49
2021/12/10 02:06:49;;;;;;;;;;;22.30;61.60;;;;;;4128947;28;20048;-55
2021/12/10 02:08:54;;;;;;;2.58;0.98;;;22.30;62.20;;;;;;4151804;28;19928;-48
2021/12/10 02:10:56;;;;;;;0.55;0.50;;;22.30;62.80;;;;;;4159207;28;20163;-51
2021/12/10 02:13:00;;;;;;;1.08;0.70;;;22.30;63.00;;;;;;4179531;28;20233;-50
2021/12/10 02:15:04;;;;;;;0.57;0.47;;;22.30;63.50;;;;;;4184614;28;20047;-50
2021/12/10 02:17:07;;;;;;;0.80;0.40;;;22.30;63.60;;;;;;4164852;28;20082;-49
2021/12/10 02:19:11;;;;;;;0.77;0.57;;;22.30;63.90;;;;;;4185107;28;20579;-50
2021/12/10 02:21:19;;;;;;;2.08;0.65;;;22.30;64.10;;;;;;4175956;28;20058;-52
2021/12/10 02:23:22;;;;;;;1.20;0.80;;;22.30;64.50;;;;;;4183813;27;20558;-54
2021/12/10 02:25:28;;;;;;;1.02;0.73;;;22.40;64.20;;;;;;4175255;28;20903;-50
2021/12/10 02:27:30;;;;;;;2.17;0.63;;;22.40;64.70;;;;;;4172193;28;20070;-48
2021/12/10 02:29:36;;;;;;;1.92;0.85;;;22.40;63.60;;;;;;4175202;28;20831;-53
2021/12/10 02:31:40;;;;;;;5.30;1.13;;;22.40;61.70;;;;;;4173825;28;20044;-51
2021/12/10 02:33:43;;;;;;;1.83;0.95;;;22.40;62.20;;;;;;4182541;28;20052;-49
2021/12/10 02:35:45;;;;;;;1.77;1.00;;;22.40;62.10;;;;;;4183265;28;20078;-49
2021/12/10 02:37:48;;;;;;;2.47;1.08;;;22.40;61.50;;;;;;4181759;28;20051;-47
2021/12/10 02:39:51;;;;;;;2.10;0.88;;;22.40;61.20;;;;;;4183073;28;20047;-47
2021/12/10 02:41:55;;;;;;;1.38;0.90;;;22.40;61.90;;;;;;4182275;28;20047;-47
2021/12/10 02:43:59;;;;;;;1.48;0.75;;;22.40;61.20;;;;;;4183118;28;20139;-47
2021/12/10 02:46:02;;;;;;;1.80;0.90;;;22.40;61.30;;;;;;4182529;28;20683;-53
2021/12/10 02:48:05;;;;;;;1.73;0.70;;;22.40;61.60;;;;;;4171667;28;20499;-54
2021/12/10 02:50:10;;;;;;;1.02;0.68;;;22.30;61.50;;;;;;4154521;28;20455;-48
2021/12/10 02:52:14;;;;;;;1.65;0.75;;;22.30;61.70;;;;;;4181076;28;21350;-47
2021/12/10 02:54:31;;;;;;;1.02;0.77;;;22.30;61.90;;;;;;4180630;28;20578;-46
2021/12/10 02:56:34;;;;;;;4.15;1.08;;;22.30;61.70;;;;;;4182380;28;20142;-49
2021/12/10 02:58:36;;;;;;;1.48;0.77;;;22.30;62.00;;;;;;4183632;28;20047;-51
2021/12/10 03:01:00;;;;;;;1.83;0.93;;;22.30;61.90;;;;;;4163865;28;21758;-47
2021/12/10 03:03:02;;;;;;;1.50;0.70;;;22.30;61.70;;;;;;4172586;28;20533;-53
2021/12/10 03:05:07;;;;;;;2.10;1.03;;;22.30;61.70;;;;;;4180710;28;20063;-50
2021/12/10 03:07:15;;;;;;;1.67;0.80;;;22.30;61.70;;;;;;4171620;28;20052;-48
2021/12/10 03:09:19;;;;;;;1.58;0.82;;;22.30;61.40;;;;;;4165502;28;20107;-49
2021/12/10 03:11:27;;;;;;;1.45;0.82;;;22.30;62.20;;;;;;4131782;28;20614;-48
2021/12/10 03:13:29;;;;;;;3.92;1.30;;;22.20;62.30;;;;;;4131967;28;20047;-45
2021/12/10 03:15:32;;;;;;;1.58;1.08;;;22.20;61.90;;;;;;4167233;28;20059;-52
2021/12/10 03:17:35;;;;;;;0.82;0.70;;;22.20;61.80;;;;;;4181479;28;20055;-50
2021/12/10 03:19:38;;;;;;;1.58;0.82;;;22.20;61.90;;;;;;4185705;28;20843;-50
2021/12/10 03:21:44;;;;;;;1.15;0.80;;;22.20;61.80;;;;;;4183776;28;20056;-50
2021/12/10 03:23:48;;;;;;;0.95;0.88;;;22.20;62.30;;;;;;4188866;28;20043;-51
2021/12/10 03:25:51;;;;;;;1.45;0.90;;;22.20;62.20;;;;;;4186086;28;20055;-49
2021/12/10 03:27:53;;;;;;;1.07;0.83;;;22.10;62.30;;;;;;4177709;28;20713;-48
2021/12/10 03:29:55;;;;;;;2.13;0.85;;;22.10;62.30;;;;;;4188588;28;20830;-49
2021/12/10 03:32:00;;;;;;;2.00;1.10;;;22.20;62.40;;;;;;4161658;28;20525;-45
2021/12/10 03:34:04;;;;;;;1.70;0.70;;;22.20;62.40;;;;;;4161958;28;20056;-46
2021/12/10 03:36:08;;;;;;;1.70;0.75;;;22.20;62.30;;;;;;4186189;28;20119;-52
2021/12/10 03:38:14;;;;;;;0.73;0.60;;;22.10;62.50;;;;;;4178594;28;20056;-48
2021/12/10 03:40:18;;;;;;;1.75;0.90;;;22.10;62.50;;;;;;4189063;28;20070;-50
2021/12/10 03:42:22;;;;;;;1.58;0.80;;;22.10;62.60;;;;;;4189902;28;20048;-47
2021/12/10 03:44:26;;;;;;;0.68;0.43;;;22.20;63.10;;;;;;4158704;28;20825;-45
2021/12/10 03:46:28;;;;;;;1.95;0.80;;;22.10;62.60;;;;;;4189766;28;20048;-50
2021/12/10 03:48:35;;;;;;;2.22;0.90;;;22.10;62.60;;;;;;4189452;28;20652;-47
2021/12/10 03:50:37;;;;;;;1.25;0.77;;;22.10;62.90;;;;;;4191202;28;20248;-48
2021/12/10 03:52:40;;;;;;;1.27;0.85;;;22.10;62.90;;;;;;4179725;28;20118;-48
2021/12/10 03:54:43;;;;;;;1.23;0.73;;;22.10;63.00;;;;;;4190565;28;20051;-50
2021/12/10 03:56:47;;;;;;;1.73;0.65;;;22.10;63.30;;;;;;4180918;28;20847;-49
2021/12/10 03:58:50;;;;;;;1.23;0.70;;;22.10;63.30;;;;;;4189980;28;20043;-51
2021/12/10 04:02:14;;;;;;;1.35;0.65;;;22.10;63.00;;;;;;4168755;27;20535;-51
2021/12/10 04:04:20;;;;;;;1.15;0.63;;;22.10;63.80;;;;;;4167592;28;20384;-57
2021/12/10 04:06:23;;;;;;;3.05;0.80;;;22.10;63.80;;;;;;4139184;28;20057;-55
2021/12/10 04:08:25;;;;;;;1.20;0.50;;;22.10;63.80;;;;;;4174827;28;20048;-54
2021/12/10 04:10:28;;;;;;;1.65;0.60;;;22.10;63.80;;;;;;4176018;28;20044;-55
2021/12/10 04:12:30;;;;;;;1.37;0.63;;;22.10;63.80;;;;;;4150854;28;20294;-55
2021/12/10 04:14:32;;;;;;;1.27;0.45;;;22.10;63.90;;;;;;4158174;28;20248;-55
2021/12/10 04:16:36;;;;;;;0.40;0.40;;;22.10;63.90;;;;;;4134546;28;20056;-55
2021/12/10 04:18:39;;;;;;;1.50;0.50;;;22.10;64.00;;;;;;4114986;28;21253;-51
2021/12/10 04:20:43;;;;;;;2.35;0.77;;;22.10;63.90;;;;;;4121506;28;20467;-51
2021/12/10 04:22:46;;;;;;;3.63;0.70;;;22.10;63.90;;;;;;4122684;28;20059;-54
2021/12/10 04:24:49;;;;;;;2.55;0.90;;;22.10;63.90;;;;;;4151448;28;20127;-52
2021/12/10 04:26:52;;;;;;;1.30;0.40;;;22.20;64.30;;;;;;4162666;28;20905;-54
2021/12/10 04:28:55;;;;;;;1.23;0.40;;;22.10;64.30;;;;;;4162635;28;20140;-57
2021/12/10 04:30:57;;;;;;;2.67;0.50;;;22.10;64.50;;;;;;4160937;28;20819;-54
2021/12/10 04:32:59;;;;;;;0.50;0.43;;;22.10;64.40;;;;;;4163816;28;20882;-53
2021/12/10 04:35:03;;;;;;;0.52;0.30;;;22.20;64.50;;;;;;4161868;28;20096;-51
2021/12/10 04:37:08;;;;;;;1.30;0.82;;;22.10;64.30;;;;;;4161831;28;20059;-52
2021/12/10 04:39:10;;;;;;;0.90;0.43;;;22.20;64.40;;;;;;4163245;28;20071;-48
2021/12/10 04:41:14;;;;;;;1.92;0.38;;;22.10;64.20;;;;;;4157695;28;20052;-49
2021/12/10 04:43:22;;;;;;;2.30;0.68;;;22.10;64.30;;;;;;4192051;27;20278;-47
2021/12/10 04:45:24;;;;;;;1.80;0.75;;;22.10;64.30;;;;;;4165421;28;20148;-55
2021/12/10 04:47:28;;;;;;;6.75;1.20;;;22.10;64.50;;;;;;4157879;28;20187;-52
2021/12/10 04:49:30;;;;;;;4.75;0.65;;;22.10;64.70;;;;;;4161120;28;20149;-53
2021/12/10 04:51:40;;;;;;;5.75;0.57;;;22.10;64.80;;;;;;4157501;28;20074;-53
2021/12/10 04:53:42;;;;;;;2.67;0.45;;;22.10;64.90;;;;;;4137633;28;21362;-53
2021/12/10 04:55:45;;;;;;;0.52;0.52;;;22.10;64.90;;;;;;4141853;28;21171;-53
2021/12/10 04:57:47;;;;;;;1.52;0.40;;;22.10;64.90;;;;;;4142533;28;22052;-52
2021/12/10 04:59:50;;;;;;;1.55;0.50;;;22.10;65.00;;;;;;4142971;28;21488;-52
2021/12/10 05:01:55;;;;;;;3.07;0.63;;;22.10;65.30;;;;;;4143432;28;20060;-50
2021/12/10 05:03:57;;;;;;;2.67;0.68;;;22.10;65.50;;;;;;4141984;28;20708;-51
2021/12/10 05:06:03;;;;;;;2.92;0.50;;;22.10;65.50;;;;;;4142509;28;20057;-51
2021/12/10 05:08:06;;;;;;;3.20;0.70;;;22.10;65.60;;;;;;4143797;28;20632;-53
2021/12/10 05:10:12;;;;;;;3.05;0.60;;;22.10;65.60;;;;;;4128286;28;20134;-49
2021/12/10 05:12:14;;;;;;;7.43;0.60;;;22.10;65.50;;;;;;4141398;28;20091;-56
2021/12/10 05:14:17;;;;;;;1.55;0.60;;;22.10;65.60;;;;;;4133582;28;20097;-54
2021/12/10 05:16:25;;;;;;;0.73;0.32;;;22.10;65.60;;;;;;4134438;28;20060;-53
2021/12/10 05:18:30;;;;;;;0.40;0.20;;;22.20;65.60;;;;;;4133002;28;20425;-54
2021/12/10 05:20:37;;;;;;;0.30;0.30;;;22.10;65.50;;;;;;4135503;28;20056;-50
2021/12/10 05:22:45;;;;;;;2.97;0.50;;;22.10;65.50;;;;;;4133702;28;20049;-47
2021/12/10 05:24:47;;;;;;;0.55;0.35;;;22.20;65.60;;;;;;4117012;28;20073;-50
2021/12/10 05:26:49;;;;;;;1.95;0.57;;;22.10;65.60;;;;;;4136066;28;21500;-50
2021/12/10 05:28:52;;;;;;;1.25;0.30;;;22.10;65.60;;;;;;4135653;28;20053;-51
2021/12/10 05:30:56;;;;;;;0.98;0.30;;;22.10;65.60;;;;;;4133510;28;20057;-53
2021/12/10 05:33:01;;;;;;;0.35;0.35;;;22.10;65.50;;;;;;4134188;28;20052;-54
2021/12/10 05:35:04;;;;;;;3.25;0.50;;;22.10;65.60;;;;;;4165250;28;20051;-49
2021/12/10 05:37:07;;;;;;;3.92;1.15;;;22.10;65.40;;;;;;4124746;28;21337;-49
2021/12/10 05:39:11;;;;;;;5.78;0.93;;;22.10;65.60;;;;;;4116272;28;20106;-53
2021/12/10 05:41:13;;;;;;;1.27;0.50;;;22.10;65.60;;;;;;4095229;28;20045;-53
2021/12/10 05:43:17;;;;;;;2.78;0.65;;;22.20;65.60;;;;;;4083593;28;20064;-50
2021/12/10 05:45:21;;;;;;;2.72;0.80;;;22.20;65.50;;;;;;4103013;28;20053;-48
2021/12/10 05:47:24;;;;;;;1.70;0.63;;;22.20;65.50;;;;;;4118927;28;20059;-51
2021/12/10 05:49:26;;;;;;;2.58;1.20;;;22.30;65.50;;;;;;4140860;28;21070;-53
2021/12/10 05:51:29;;;;;;;3.00;1.02;;;22.30;65.50;;;;;;4142918;28;20160;-52
2021/12/10 05:53:31;;;;;;;4.20;1.83;;;22.30;65.50;;;;;;4140564;28;20088;-49
2021/12/10 05:55:35;;;;;;;5.07;1.70;;;22.30;65.40;;;;;;4142602;28;20340;-50
2021/12/10 05:57:37;;;;;;;3.55;1.73;;;22.30;65.40;;;;;;4135841;28;20136;-49
2021/12/10 05:59:40;;;;;;;4.63;2.08;;;22.30;65.30;;;;;;4136884;28;20049;-48
2021/12/10 06:01:43;;;;;;;4.90;1.83;;;22.30;65.20;;;;;;4114608;28;20075;-48
2021/12/10 06:03:52;;;;;;;4.15;1.98;;;22.30;65.10;;;;;;4132502;28;20082;-47
2021/12/10 06:05:55;;;;;;;4.68;1.50;;;22.30;64.60;;;;;;4134105;28;20048;-51
2021/12/10 06:07:57;;;;;;;5.57;1.83;;;22.30;65.00;;;;;;4118539;28;20724;-49
2021/12/10 06:09:59;;;;;;;3.88;1.67;;;22.30;65.00;;;;;;4133568;28;20144;-49
2021/12/10 06:12:02;;;;;;;3.35;1.67;;;22.30;65.00;;;;;;4117348;28;20064;-49
2021/12/10 06:14:07;;;;;;;4.00;1.70;;;22.30;65.00;;;;;;4132286;28;20057;-51
2021/12/10 06:16:10;;;;;;;4.72;1.92;;;22.20;64.90;;;;;;4135500;28;20049;-53
2021/12/10 06:18:13;;;;;;;4.40;1.73;;;22.20;65.20;;;;;;4119180;28;20461;-47
2021/12/10 06:20:24;;;;;;;4.85;1.98;;;22.20;65.20;;;;;;4118321;28;21050;-51
2021/12/10 06:22:27;;;;;;;4.50;1.80;;;22.20;65.30;;;;;;4092837;28;20159;-46
2021/12/10 06:24:30;;;;;;;3.80;1.50;;;22.20;65.20;;;;;;4088592;28;20053;-51
2021/12/10 06:26:32;;;;;;;4.10;1.63;;;22.20;65.10;;;;;;4094306;28;21228;-47
2021/12/10 06:28:36;;;;;;;5.70;1.50;;;22.20;65.20;;;;;;4134293;28;20049;-47
2021/12/10 06:30:44;;;;;;;2.90;1.40;;;22.20;65.10;;;;;;4136653;28;20048;-49
2021/12/10 06:32:52;;;;;;;2.38;1.20;;;22.20;65.10;;;;;;4134495;28;20904;-48
2021/12/10 06:34:54;;;;;;;2.53;1.13;;;22.20;65.20;;;;;;4136030;28;20843;-50
2021/12/10 06:36:57;;;;;;;3.03;1.00;;;22.20;65.10;;;;;;4134437;28;20068;-49
2021/12/10 06:39:01;;;;;;;2.92;1.20;;;22.20;65.10;;;;;;4131529;28;20881;-50
2021/12/10 06:41:04;;;;;;;2.38;1.15;;;22.20;65.10;;;;;;4133117;28;21072;-46
2021/12/10 06:43:08;;;;;;;1.92;1.00;;;22.20;65.20;;;;;;4134852;28;20114;-49
2021/12/10 06:45:12;;;;;;;3.05;0.85;;;22.20;65.60;;;;;;4133911;28;20053;-52
2021/12/10 06:47:14;;;;;;;3.55;1.30;;;22.20;65.00;;;;;;4137764;28;20546;-54
2021/12/10 06:49:18;;;;;;;3.05;0.90;;;22.20;64.90;;;;;;4169250;28;20044;-52
2021/12/10 06:51:21;;;;;;;2.47;0.80;;;22.20;64.80;;;;;;4137071;28;22159;-51
2021/12/10 06:53:25;;;;;;;3.60;1.02;;;22.10;64.70;;;;;;4136143;28;20045;-51
2021/12/10 06:55:29;;;;;;;1.75;0.60;;;22.10;64.50;;;;;;4135571;28;20049;-51
2021/12/10 06:57:31;;;;;;;5.10;1.25;;;22.10;64.30;;;;;;4136476;28;20120;-51
2021/12/10 06:59:34;;;;;;;3.03;1.10;;;22.10;64.00;;;;;;4135330;28;20259;-53
2021/12/10 07:02:14;;;;;;;1.45;0.65;;;22.10;63.20;;;;;;4161576;27;21158;-49
2021/12/10 07:04:15;;;;;;;;;;;22.10;63.60;;;;;;4154188;28;20044;-53
2021/12/10 07:06:19;;;;;;;1.60;0.80;;;22.10;63.60;;;;;;4160179;28;20344;-53
2021/12/10 07:08:22;;;;;;;;;;;22.00;63.80;;;;;;4175595;28;20059;-52
2021/12/10 07:10:24;;;;;;;1.27;0.32;;;22.00;64.00;;;;;;4159986;28;20602;-51
2021/12/10 07:12:27;;;;;;;1.50;0.50;;;22.00;64.00;;;;;;4155539;28;20773;-49
2021/12/10 07:14:29;;;;;;;1.95;0.50;;;22.00;64.10;;;;;;4158882;28;20080;-47
2021/12/10 07:16:32;;;;;;;2.80;1.10;;;22.00;64.20;;;;;;4157054;28;21018;-49
2021/12/10 07:18:34;;;;;;;1.58;0.70;;;22.00;64.40;;;;;;4158700;28;20059;-50
2021/12/10 07:20:39;;;;;;;2.80;0.57;;;22.00;64.40;;;;;;4156339;28;20118;-50
2021/12/10 07:22:41;;;;;;;1.20;0.73;;;22.00;64.70;;;;;;4154679;28;20109;-46
2021/12/10 07:24:43;;;;;;;1.27;0.98;;;22.00;64.50;;;;;;4157260;28;20067;-51
2021/12/10 07:26:45;;;;;;;0.88;0.50;;;22.00;64.80;;;;;;4154323;28;20048;-49
2021/12/10 07:28:48;;;;;;;10.00;0.90;;;22.00;64.90;;;;;;4155398;28;20981;-44
2021/12/10 07:30:51;;;;;;;1.75;0.68;;;22.00;64.90;;;;;;4158182;28;20066;-49
2021/12/10 07:32:54;;;;;;;2.72;0.60;;;22.00;64.90;;;;;;4158670;28;20906;-50
2021/12/10 07:34:56;;;;;;;0.77;0.43;;;22.00;64.70;;;;;;4157077;28;20822;-48
2021/12/10 07:36:58;;;;;;;2.03;0.50;;;22.00;64.40;;;;;;4160065;28;20571;-54
2021/12/10 07:39:01;;;;;;;1.48;0.40;;;22.00;64.20;;;;;;4159967;28;20168;-55
2021/12/10 07:41:04;;;;;;;0.57;0.47;;;22.00;64.10;;;;;;4158631;28;21471;-59
2021/12/10 07:43:07;;;;;;;2.33;0.73;;;21.90;63.90;;;;;;4159443;28;20579;-57
2021/12/10 07:45:11;;;;;;;0.60;0.40;;;21.90;64.10;;;;;;4157092;28;20676;-55
2021/12/10 07:47:15;;;;;;;1.08;0.60;;;22.00;64.70;;;;;;4160649;28;20448;-55
2021/12/10 07:49:23;;;;;;;0.60;0.40;;;21.90;63.80;;;;;;4157884;28;20049;-54
2021/12/10 07:51:28;;;;;;;1.52;0.70;;;21.90;63.50;;;;;;4157887;28;20071;-52
2021/12/10 07:53:33;;;;;;;2.25;0.50;;;21.90;63.20;;;;;;4154771;28;20385;-54
2021/12/10 07:55:38;;;;;;;1.80;0.55;;;21.90;63.20;;;;;;4141704;28;21002;-50
2021/12/10 07:57:40;;;;;;;1.90;0.43;;;21.90;63.20;;;;;;4141125;28;20123;-47
2021/12/10 07:59:44;;;;;;;1.17;0.60;;;21.80;63.20;;;;;;4142571;28;20060;-53
2021/12/10 08:01:45;;;;;;;;;;;21.80;63.10;;;;;;4140154;28;20065;-52
2021/12/10 08:03:48;;;;;;;0.85;0.50;;;21.80;63.20;;;;;;4161250;28;20042;-53
2021/12/10 08:05:52;;;;;;;0.73;0.47;;;21.80;63.20;;;;;;4140751;28;20763;-49
2021/12/10 08:07:55;;;;;;;1.83;0.60;;;21.80;63.20;;;;;;4143499;28;20041;-47
2021/12/10 08:09:57;;;;;;;;;;;21.70;63.20;;;;;;4142444;28;22152;-52
2021/12/10 08:11:59;;;;;;;1.75;0.52;;;21.70;63.30;;;;;;4142753;28;20008;-51
2021/12/10 08:14:01;;;;;;;0.82;0.60;;;21.70;63.30;;;;;;4131723;28;20069;-47
2021/12/10 08:16:03;;;;;;;0.77;0.55;;;21.70;63.40;;;;;;4131541;28;20075;-53
2021/12/10 08:18:06;;;;;;;2.08;0.60;;;21.70;63.40;;;;;;4135438;28;20118;-54
2021/12/10 08:20:12;;;;;;;0.45;0.45;;;21.70;63.50;;;;;;4137250;28;20053;-52
2021/12/10 08:22:14;;;;;;;1.00;0.57;;;21.60;63.40;;;;;;4140815;28;20127;-51
2021/12/10 08:24:17;;;;;;;1.55;0.95;;;21.60;63.50;;;;;;4136486;28;20045;-51
2021/12/10 08:26:20;;;;;;;1.00;0.70;;;21.60;63.50;;;;;;4139841;28;20061;-50
2021/12/10 08:28:25;;;;;;;0.55;0.40;;;21.60;63.70;;;;;;4119130;28;20045;-56
2021/12/10 08:30:29;;;;;;;1.92;0.65;;;21.60;63.60;;;;;;4133681;28;20496;-51
2021/12/10 08:32:32;;;;;;;0.30;0.30;;;21.60;63.80;;;;;;4129893;28;20048;-54
2021/12/10 08:34:34;;;;;;;1.10;0.32;;;21.60;64.10;;;;;;4127619;28;20115;-59
2021/12/10 08:36:37;;;;;;;2.20;0.47;;;21.60;64.40;;;;;;4125968;28;20056;-55
2021/12/10 08:38:40;;;;;;;0.22;0.22;;;21.60;64.50;;;;;;4131492;28;20065;-54
2021/12/10 08:40:49;;;;;;;1.52;0.57;;;21.60;64.60;;;;;;4131052;28;20091;-57
2021/12/10 08:42:53;;;;;;;0.20;0.20;;;21.60;64.60;;;;;;4132998;28;20480;-58
2021/12/10 08:44:55;;;;;;;1.67;0.63;;;21.60;64.80;;;;;;4129954;28;20127;-58
2021/12/10 08:46:58;;;;;;;3.78;0.47;;;21.60;64.90;;;;;;4125175;28;20059;-53
2021/12/10 08:49:00;;;;;;;1.42;0.43;;;21.70;65.00;;;;;;4132260;28;20057;-57
2021/12/10 08:51:16;;;;;;;2.42;0.32;;;21.70;65.10;;;;;;4130970;28;20053;-57
2021/12/10 08:53:18;;;;;;;1.25;0.43;;;21.70;64.90;;;;;;4131110;28;20079;-56
2021/12/10 08:55:21;;;;;;;0.60;0.47;;;21.70;64.90;;;;;;4131074;28;20180;-55
2021/12/10 08:57:24;;;;;;;1.42;0.60;;;21.70;65.00;;;;;;4129311;28;20087;-55
2021/12/10 08:59:25;;;;;;;;;;;21.70;65.00;;;;;;4124193;28;20053;-55
2021/12/10 09:01:33;;;;;;;0.82;0.40;;;21.70;65.00;;;;;;4119875;28;20070;-58
2021/12/10 09:03:36;;;;;;;1.65;0.40;;;21.70;65.10;;;;;;4128141;28;20769;-53
2021/12/10 09:05:38;;;;;;;0.38;0.35;;;21.80;65.10;;;;;;4120155;28;20084;-58
2021/12/10 09:07:43;;;;;;;0.60;0.37;;;21.80;65.00;;;;;;4119061;28;20260;-57
2021/12/10 09:09:47;;;;;;;1.55;0.52;;;21.80;65.10;;;;;;4121715;28;20175;-57
2021/12/10 09:11:53;;;;;;;0.30;0.30;;;21.80;65.10;;;;;;4128248;28;20136;-57
2021/12/10 09:13:55;;;;;;;0.30;0.30;;;21.80;65.10;;;;;;4130922;28;20061;-53
2021/12/10 09:16:01;;;;;;;1.03;0.30;;;21.80;65.10;;;;;;4130256;28;20053;-56
2021/12/10 09:18:06;;;;;;;1.30;0.30;;;21.80;65.10;;;;;;4127481;28;20384;-54
2021/12/10 09:20:19;;;;;;;4.90;0.40;;;21.80;65.10;;;;;;4128607;28;20057;-57
2021/12/10 09:22:23;;;;;;;0.37;0.37;;;21.80;65.00;;;;;;4126574;28;20076;-56
2021/12/10 09:24:25;;;;;;;0.30;0.30;;;21.80;65.10;;;;;;4117625;28;20657;-57
2021/12/10 09:26:29;;;;;;;0.40;0.40;;;21.80;65.10;;;;;;4117767;28;20056;-56
2021/12/10 09:28:31;;;;;;;0.30;0.30;;;21.80;65.10;;;;;;4130912;28;20456;-57
2021/12/10 09:30:36;;;;;;;0.33;0.30;;;21.80;65.00;;;;;;4128769;28;20064;-55
2021/12/10 09:32:39;;;;;;;0.43;0.30;;;21.80;65.00;;;;;;4128871;28;20453;-53
2021/12/10 09:34:42;;;;;;;0.40;0.40;;;21.90;65.00;;;;;;4129553;28;20060;-55
2021/12/10 09:36:46;;;;;;;0.30;0.30;;;21.90;65.00;;;;;;4127951;28;20060;-58
2021/12/10 09:38:49;;;;;;;0.30;0.30;;;21.90;64.90;;;;;;4126499;28;20076;-53
2021/12/10 09:40:56;;;;;;;1.27;0.30;;;21.90;65.00;;;;;;4129264;28;20052;-54
2021/12/10 09:43:00;;;;;;;0.17;0.17;;;21.90;64.90;;;;;;4128709;28;20053;-57
2021/12/10 09:45:04;;;;;;;0.20;0.20;;;21.90;64.90;;;;;;4129815;28;20063;-56
2021/12/10 09:47:10;;;;;;;0.20;0.20;;;21.90;64.80;;;;;;4128793;28;20613;-58
2021/12/10 09:49:15;;;;;;;0.40;0.40;;;21.90;64.90;;;;;;4126338;28;20139;-54
2021/12/10 09:51:25;;;;;;;0.38;0.38;;;21.90;65.00;;;;;;4129284;28;20045;-58
2021/12/10 09:53:30;;;;;;;0.20;0.20;;;21.90;64.90;;;;;;4128311;28;20611;-55
2021/12/10 09:55:34;;;;;;;0.57;0.40;;;21.90;64.80;;;;;;4127245;28;20041;-57
2021/12/10 09:57:38;;;;;;;0.40;0.40;;;21.90;64.90;;;;;;4111916;28;20062;-54
2021/12/10 09:59:43;;;;;;;0.52;0.52;;;21.90;64.80;;;;;;4126355;28;20053;-59
2021/12/10 10:02:15;;;;;;;0.30;0.30;;;21.90;64.30;;;;;;4148866;27;20525;-56
2021/12/10 10:04:19;;;;;;;0.30;0.30;;;21.90;65.20;;;;;;4148698;28;20087;-56
2021/12/10 10:06:22;;;;;;;0.70;0.40;;;21.90;64.80;;;;;;4149826;28;20066;-55
2021/12/10 10:08:25;;;;;;;;;;;21.90;64.80;;;;;;4149822;28;20110;-54
2021/12/10 10:10:29;;;;;;;0.30;0.30;;;21.90;64.80;;;;;;4180450;28;21272;-55
2021/12/10 10:12:34;;;;;;;0.30;0.30;;;21.90;64.90;;;;;;4147140;28;20074;-54
2021/12/10 10:14:38;;;;;;;0.30;0.30;;;21.90;64.20;;;;;;4148187;28;20172;-58
2021/12/10 10:16:44;;;;;;;0.40;0.30;;;22.00;64.80;;;;;;4146343;28;20080;-56
2021/12/10 10:18:47;;;;;;;0.40;0.30;;;22.00;65.30;;;;;;4146597;28;20052;-57
2021/12/10 10:20:56;;;;;;;0.30;0.30;;;22.00;64.60;;;;;;4148499;28;20048;-58
2021/12/10 10:22:59;;;;;;;0.20;0.20;;;21.90;64.50;;;;;;4147599;28;20056;-56
2021/12/10 10:25:03;;;;;;;0.52;0.25;;;22.00;64.60;;;;;;4146981;28;20049;-55
2021/12/10 10:27:10;;;;;;;1.20;0.20;;;22.00;64.60;;;;;;4149738;28;20076;-55
2021/12/10 10:29:17;;;;;;;0.20;0.20;;;22.00;64.60;;;;;;4129898;28;20053;-54
2021/12/10 10:31:23;;;;;;;0.77;0.30;;;22.00;64.50;;;;;;4148423;28;20075;-54
2021/12/10 10:33:27;;;;;;;0.30;0.30;;;22.00;64.50;;;;;;4148162;28;20059;-55
2021/12/10 10:35:37;;;;;;;1.13;0.35;;;22.00;64.40;;;;;;4150418;28;20056;-56
2021/12/10 10:37:39;;;;;;;0.98;0.28;;;22.00;64.40;;;;;;4148414;28;20129;-55
2021/12/10 10:39:43;;;;;;;0.20;0.20;;;22.00;64.40;;;;;;4148591;28;20143;-55
2021/12/10 10:41:50;;;;;;;0.55;0.30;;;22.00;64.40;;;;;;4147545;28;20670;-55
2021/12/10 10:43:53;;;;;;;0.20;0.20;;;22.00;64.30;;;;;;4149559;28;20044;-53
2021/12/10 10:45:58;;;;;;;0.20;0.20;;;22.00;64.40;;;;;;4138703;28;20087;-54
2021/12/10 10:48:00;;;;;;;0.30;0.30;;;22.00;64.30;;;;;;4146394;28;20052;-55
2021/12/10 10:50:16;;;;;;;0.30;0.30;;;22.00;64.20;;;;;;4148418;28;20079;-56
2021/12/10 10:52:37;;;;;;;0.70;0.57;;;22.00;64.20;;;;;;4145873;28;20060;-58
2021/12/10 10:54:40;;;;;;;0.35;0.35;;;22.00;64.30;;;;;;4147794;28;20040;-54
2021/12/10 10:56:46;;;;;;;1.27;0.40;;;22.00;64.20;;;;;;4130902;28;20057;-56
2021/12/10 10:58:55;;;;;;;0.38;0.35;;;22.00;64.20;;;;;;4149327;28;20955;-56